createdAt,value
2022-11-26T00:02:20.419Z,16.67
2022-11-26T00:06:39.687Z,19.77
2022-11-26T00:10:42.161Z,17.05
2022-11-26T00:14:44.271Z,25.40
2022-11-26T00:18:46.696Z,22.23
2022-11-26T00:22:54.400Z,21.92
2022-11-26T00:27:01.778Z,24.25
2022-11-26T00:31:14.424Z,23.95
2022-11-26T00:35:17.141Z,17.65
2022-11-26T00:39:23.293Z,20.13
2022-11-26T00:43:25.452Z,19.95
2022-11-26T00:47:27.614Z,21.95
2022-11-26T00:51:29.759Z,20.40
2022-11-26T00:55:41.169Z,22.77
2022-11-26T00:59:43.559Z,20.85
2022-11-26T01:03:45.629Z,22.75
2022-11-26T01:07:48.263Z,16.52
2022-11-26T01:11:54.255Z,21.55
2022-11-26T01:15:58.259Z,17.05
2022-11-26T01:20:00.292Z,14.93
2022-11-26T01:24:05.160Z,12.13
2022-11-26T01:28:12.666Z,13.25
2022-11-26T01:32:14.708Z,12.90
2022-11-26T01:36:32.879Z,15.93
2022-11-26T01:40:38.049Z,14.43
2022-11-26T01:44:40.767Z,18.63
2022-11-26T01:48:43.973Z,19.42
2022-11-26T01:52:46.769Z,16.00
2022-11-26T01:56:52.494Z,15.98
2022-11-26T02:00:54.819Z,16.70
2022-11-26T02:05:12.083Z,15.00
2022-11-26T02:09:15.033Z,15.10
2022-11-26T02:13:17.390Z,16.85
2022-11-26T02:17:22.307Z,16.73
2022-11-26T02:21:28.235Z,16.23
2022-11-26T02:25:30.367Z,13.98
2022-11-26T02:30:15.287Z,12.40
2022-11-26T02:34:21.652Z,12.13
2022-11-26T02:38:26.628Z,11.90
2022-11-26T02:42:31.507Z,9.63
2022-11-26T02:46:36.336Z,7.68
2022-11-26T02:50:42.953Z,9.88
2022-11-26T02:54:45.840Z,7.50
2022-11-26T02:58:50.789Z,5.78
2022-11-26T03:03:17.185Z,5.72
2022-11-26T03:07:20.262Z,3.78
2022-11-26T03:11:25.138Z,8.00
2022-11-26T03:15:28.705Z,4.90
2022-11-26T03:19:30.867Z,6.82
2022-11-26T03:23:32.928Z,4.82
2022-11-26T03:27:35.001Z,5.60
2022-11-26T03:31:37.236Z,6.38
2022-11-26T03:35:39.336Z,5.63
2022-11-26T03:39:41.859Z,6.45
2022-11-26T03:43:44.068Z,5.95
2022-11-26T03:47:46.492Z,7.93
2022-11-26T03:51:48.502Z,8.10
2022-11-26T03:55:50.689Z,6.32
2022-11-26T03:59:52.803Z,5.15
2022-11-26T04:03:54.818Z,5.28
2022-11-26T04:07:56.826Z,2.65
2022-11-26T04:11:58.945Z,2.70
2022-11-26T04:16:01.236Z,2.35
2022-11-26T04:20:04.192Z,3.38
2022-11-26T04:24:07.467Z,3.33
2022-11-26T04:28:09.692Z,2.38
2022-11-26T04:32:11.986Z,2.92
2022-11-26T04:36:14.000Z,2.97
2022-11-26T04:40:17.171Z,3.67
2022-11-26T04:44:19.222Z,4.95
2022-11-26T04:48:21.262Z,4.18
2022-11-26T04:52:23.518Z,3.92
2022-11-26T04:56:26.559Z,6.72
2022-11-26T05:00:28.914Z,3.30
2022-11-26T05:04:31.977Z,3.42
2022-11-26T05:08:33.953Z,5.25
2022-11-26T05:12:36.368Z,3.80
2022-11-26T05:16:38.556Z,4.15
2022-11-26T05:20:40.748Z,4.93
2022-11-26T05:24:42.926Z,6.63
2022-11-26T05:28:45.018Z,5.13
2022-11-26T05:32:47.393Z,6.40
2022-11-26T05:36:49.874Z,3.50
2022-11-26T05:40:55.132Z,5.55
2022-11-26T05:44:57.427Z,4.90
2022-11-26T05:48:59.525Z,5.90
2022-11-26T05:53:01.633Z,4.00
2022-11-26T05:57:03.662Z,4.20
2022-11-26T06:01:09.664Z,6.40
2022-11-26T06:05:12.058Z,6.80
2022-11-26T06:09:14.360Z,6.43
2022-11-26T06:13:16.753Z,4.75
2022-11-26T06:17:19.760Z,5.13
2022-11-26T06:21:21.950Z,4.90
2022-11-26T06:25:24.042Z,4.45
2022-11-26T06:29:28.097Z,5.28
2022-11-26T06:33:30.891Z,8.07
2022-11-26T06:37:33.538Z,3.35
2022-11-26T06:41:35.660Z,3.85
2022-11-26T06:45:39.223Z,4.35
2022-11-26T06:49:45.060Z,3.08
2022-11-26T06:53:47.204Z,2.42
2022-11-26T06:57:52.725Z,1.23
2022-11-26T07:01:57.938Z,1.00
2022-11-26T07:06:00.036Z,1.60
2022-11-26T07:10:02.030Z,1.50
2022-11-26T07:14:04.276Z,1.88
2022-11-26T07:18:06.374Z,1.02
2022-11-26T07:22:08.363Z,1.05
2022-11-26T07:26:12.281Z,0.40
2022-11-26T07:30:14.620Z,0.60
2022-11-26T07:34:16.839Z,0.60
2022-11-26T07:38:18.971Z,0.30
2022-11-26T07:42:21.452Z,0.47
2022-11-26T07:46:25.634Z,0.28
2022-11-26T07:50:27.732Z,0.60
2022-11-26T07:54:29.899Z,0.45
2022-11-26T07:58:32.934Z,1.65
2022-11-26T08:02:34.980Z,0.20
2022-11-26T08:06:37.157Z,0.40
2022-11-26T08:10:39.972Z,0.40
2022-11-26T08:14:42.137Z,0.68
2022-11-26T08:18:44.132Z,0.30
2022-11-26T08:22:46.125Z,1.25
2022-11-26T08:26:48.238Z,0.28
2022-11-26T08:30:50.222Z,0.60
2022-11-26T08:34:52.362Z,0.30
2022-11-26T08:38:54.502Z,0.60
2022-11-26T08:42:56.606Z,0.80
2022-11-26T08:46:58.762Z,1.25
2022-11-26T08:51:09.581Z,1.35
2022-11-26T08:55:11.679Z,0.10
2022-11-26T08:59:13.986Z,0.17
2022-11-26T09:03:16.403Z,0.30
2022-11-26T09:07:18.531Z,0.10
2022-11-26T09:11:20.637Z,0.45
2022-11-26T09:15:22.858Z,0.47
2022-11-26T09:19:25.257Z,1.13
2022-11-26T09:23:27.320Z,0.65
2022-11-26T09:27:32.669Z,0.63
2022-11-26T09:31:34.971Z,1.05
2022-11-26T09:35:37.403Z,0.57
2022-11-26T09:39:39.544Z,0.65
2022-11-26T09:44:19.232Z,0.70
2022-11-26T09:48:25.186Z,0.43
2022-11-26T09:52:34.296Z,0.43
2022-11-26T09:56:37.971Z,0.52
2022-11-26T10:00:44.907Z,0.57
2022-11-26T10:04:48.744Z,0.93
2022-11-26T10:08:59.405Z,0.60
2022-11-26T10:13:19.739Z,0.30
2022-11-26T10:17:52.958Z,0.45
2022-11-26T10:22:00.860Z,0.13
2022-11-26T10:26:07.890Z,0.30
2022-11-26T10:30:16.739Z,0.50
2022-11-26T10:34:28.360Z,0.40
2022-11-26T10:38:31.710Z,0.35
2022-11-26T10:42:49.264Z,0.68
2022-11-26T10:46:51.302Z,0.43
2022-11-26T10:51:13.711Z,0.25
2022-11-26T10:55:34.474Z,1.25
2022-11-26T10:59:53.501Z,0.68
2022-11-26T11:04:13.883Z,0.60
2022-11-26T11:08:29.575Z,1.10
2022-11-26T11:12:32.151Z,0.30
2022-11-26T11:16:46.311Z,0.22
2022-11-26T11:20:51.380Z,0.17
2022-11-26T11:24:58.365Z,0.85
2022-11-26T11:29:00.705Z,0.30
2022-11-26T11:33:20.599Z,1.25
2022-11-26T11:37:22.736Z,1.77
2022-11-26T11:41:34.262Z,0.75
2022-11-26T11:46:13.261Z,0.85
2022-11-26T11:50:36.157Z,0.77
2022-11-26T11:54:57.029Z,1.15
2022-11-26T11:59:21.708Z,1.58
2022-11-26T12:03:43.597Z,2.83
2022-11-26T12:08:10.038Z,2.58
2022-11-26T12:12:24.207Z,1.80
2022-11-26T12:16:30.866Z,3.40
2022-11-26T12:20:45.035Z,3.53
2022-11-26T12:24:54.373Z,4.60
2022-11-26T12:29:04.675Z,3.25
2022-11-26T12:33:23.488Z,6.60
2022-11-26T12:37:29.064Z,5.95
2022-11-26T12:41:41.216Z,5.50
2022-11-26T12:46:00.142Z,5.97
2022-11-26T12:50:05.764Z,5.60
2022-11-26T12:54:23.995Z,6.70
2022-11-26T12:58:41.374Z,7.00
2022-11-26T13:02:48.015Z,7.07
2022-11-26T13:07:28.485Z,4.85
2022-11-26T13:11:48.731Z,2.38
2022-11-26T13:16:20.212Z,2.42
2022-11-26T13:20:41.187Z,4.55
2022-11-26T13:24:49.366Z,3.80
2022-11-26T13:29:12.703Z,5.70
2022-11-26T13:33:29.928Z,2.60
2022-11-26T13:37:55.105Z,4.05
2022-11-26T13:42:09.090Z,4.43
2022-11-26T13:46:22.510Z,5.07
2022-11-26T13:50:35.701Z,5.38
2022-11-26T13:54:56.418Z,4.60
2022-11-26T13:59:05.197Z,3.92
2022-11-26T14:03:09.469Z,3.05
2022-11-26T14:07:11.429Z,3.30
2022-11-26T14:11:45.278Z,4.05
2022-11-26T14:16:10.602Z,4.93
2022-11-26T14:20:15.554Z,3.63
2022-11-26T14:25:00.626Z,2.80
2022-11-26T14:29:14.098Z,3.72
2022-11-26T14:33:19.008Z,5.20
2022-11-26T14:37:28.907Z,3.10
2022-11-26T14:42:05.638Z,3.85
2022-11-26T14:46:16.584Z,6.07
2022-11-26T14:50:21.506Z,4.40
2022-11-26T14:54:35.149Z,4.22
2022-11-26T14:58:42.683Z,3.22
2022-11-26T15:02:46.120Z,3.42
2022-11-26T15:06:49.133Z,4.13
2022-11-26T15:10:57.255Z,5.50
2022-11-26T15:15:02.500Z,4.63
2022-11-26T15:19:06.695Z,5.13
2022-11-26T15:23:18.614Z,3.92
2022-11-26T15:27:34.950Z,6.35
2022-11-26T15:31:42.061Z,5.97
2022-11-26T15:35:44.075Z,4.82
2022-11-26T15:39:46.201Z,5.78
2022-11-26T15:43:54.089Z,4.93
2022-11-26T15:47:56.502Z,3.83
2022-11-26T15:52:04.381Z,8.27
2022-11-26T15:56:08.518Z,4.78
2022-11-26T16:00:29.313Z,4.93
2022-11-26T16:04:48.622Z,6.70
2022-11-26T16:08:59.678Z,3.95
2022-11-26T16:13:18.788Z,5.30
2022-11-26T16:17:21.500Z,5.40
2022-11-26T16:21:30.529Z,4.78
2022-11-26T16:25:34.743Z,5.25
2022-11-26T16:33:39.903Z,3.88
2022-11-26T16:37:45.177Z,4.38
2022-11-26T16:41:47.247Z,3.65
2022-11-26T16:45:53.391Z,6.00
2022-11-26T16:49:56.113Z,2.38
2022-11-26T16:53:58.326Z,1.58
2022-11-26T16:58:01.502Z,3.65
2022-11-26T17:02:03.839Z,1.35
2022-11-26T17:06:25.775Z,3.28
2022-11-26T17:10:31.418Z,2.03
2022-11-26T17:14:33.654Z,4.13
2022-11-26T17:18:35.731Z,5.85
2022-11-26T17:22:37.726Z,8.70
2022-11-26T17:26:39.812Z,2.92
2022-11-26T17:30:44.020Z,11.35
2022-11-26T17:34:47.329Z,7.35
2022-11-26T17:38:50.463Z,4.00
2022-11-26T17:42:52.919Z,4.43
2022-11-26T17:51:19.700Z,3.45
2022-11-26T17:55:24.267Z,4.32
2022-11-26T17:59:26.507Z,5.88
2022-11-26T18:03:28.889Z,5.97
2022-11-26T18:07:31.514Z,4.90
2022-11-26T18:12:00.871Z,5.88
2022-11-26T18:16:03.553Z,3.10
2022-11-26T18:20:06.554Z,2.33
2022-11-26T18:24:12.084Z,7.03
2022-11-26T18:28:16.662Z,1.95
2022-11-26T18:36:20.795Z,6.10
2022-11-26T18:40:23.188Z,2.78
2022-11-26T18:44:25.790Z,5.60
2022-11-26T18:48:27.911Z,2.60
2022-11-26T18:52:33.170Z,8.23
2022-11-26T18:56:35.671Z,4.30
2022-11-26T19:00:38.360Z,4.72
2022-11-26T19:04:40.634Z,2.70
2022-11-26T19:08:43.652Z,2.75
2022-11-26T19:12:48.168Z,4.15
2022-11-26T19:16:53.324Z,3.63
2022-11-26T19:20:56.398Z,1.88
2022-11-26T19:24:58.602Z,2.65
2022-11-26T19:29:04.013Z,2.03
2022-11-26T19:33:06.417Z,5.68
2022-11-26T19:37:11.743Z,5.65
2022-11-26T19:41:14.515Z,3.40
2022-11-26T19:45:16.824Z,5.57
2022-11-26T19:49:18.949Z,11.85
2022-11-26T19:53:24.788Z,5.38
2022-11-26T19:57:27.392Z,4.13
2022-11-26T20:01:31.756Z,1.08
2022-11-26T20:09:38.552Z,5.90
2022-11-26T20:13:45.225Z,7.65
2022-11-26T20:17:47.734Z,4.53
2022-11-26T20:21:50.662Z,2.05
2022-11-26T20:25:53.603Z,3.13
2022-11-26T20:29:56.227Z,4.85
2022-11-26T20:33:58.515Z,4.60
2022-11-26T20:38:00.621Z,6.18
2022-11-26T20:42:02.832Z,2.13
2022-11-26T20:46:06.972Z,2.78
2022-11-26T20:50:10.880Z,3.00
2022-11-26T20:54:13.389Z,2.38
2022-11-26T20:58:15.439Z,3.67
2022-11-26T21:02:17.542Z,2.33
2022-11-26T21:06:28.999Z,6.28
2022-11-26T21:10:31.534Z,4.20
2022-11-26T21:14:33.911Z,3.85
2022-11-26T21:18:36.414Z,3.42
2022-11-26T21:22:40.875Z,7.65
2022-11-26T21:26:56.743Z,4.43
2022-11-26T21:31:27.030Z,3.03
2022-11-26T21:35:36.068Z,4.22
2022-11-26T21:39:44.319Z,4.95
2022-11-26T21:43:48.067Z,2.65
2022-11-26T21:47:51.531Z,3.70
2022-11-26T21:51:54.024Z,7.40
2022-11-26T21:55:56.355Z,3.88
2022-11-26T21:59:58.343Z,2.15
2022-11-26T22:04:04.625Z,4.50
2022-11-26T22:08:06.868Z,3.67
2022-11-26T22:12:09.081Z,2.65
2022-11-26T22:16:17.033Z,5.68
2022-11-26T22:20:19.361Z,2.53
2022-11-26T22:24:22.194Z,4.18
2022-11-26T22:28:29.698Z,4.07
2022-11-26T22:32:32.109Z,4.50
2022-11-26T22:36:34.685Z,9.10
2022-11-26T22:40:36.857Z,2.50
2022-11-26T22:44:38.908Z,4.70
2022-11-26T22:48:42.550Z,2.78
2022-11-26T22:52:44.648Z,2.70
2022-11-26T22:56:47.044Z,6.10
2022-11-26T23:00:52.666Z,1.48
2022-11-26T23:04:55.896Z,3.35
2022-11-26T23:09:03.467Z,5.28
2022-11-26T23:13:06.890Z,2.88
2022-11-26T23:17:10.176Z,5.05
2022-11-26T23:21:24.613Z,3.20
2022-11-26T23:25:26.650Z,5.70
2022-11-26T23:29:28.989Z,2.63
2022-11-26T23:33:31.902Z,3.67
2022-11-26T23:37:33.970Z,5.35
2022-11-26T23:41:36.657Z,4.00
2022-11-26T23:45:38.608Z,7.45
2022-11-26T23:49:40.744Z,4.65
2022-11-26T23:53:45.197Z,2.78
